sensor_id;sensor_type;location;lat;lon;timestamp;temperature;humidity
65374;SHT31;52070;53.760;9.678;2023-03-19T00:01:48;8.91;86.59
65374;SHT31;52070;53.760;9.678;2023-03-19T00:04:16;8.87;86.79
65374;SHT31;52070;53.760;9.678;2023-03-19T00:06:43;8.76;86.34
65374;SHT31;52070;53.760;9.678;2023-03-19T00:09:10;8.70;86.23
65374;SHT31;52070;53.760;9.678;2023-03-19T00:11:37;8.56;87.06
65374;SHT31;52070;53.760;9.678;2023-03-19T00:14:04;8.50;87.48
65374;SHT31;52070;53.760;9.678;2023-03-19T00:16:31;8.46;87.22
65374;SHT31;52070;53.760;9.678;2023-03-19T00:18:58;8.37;87.15
65374;SHT31;52070;53.760;9.678;2023-03-19T00:21:27;8.39;87.08
65374;SHT31;52070;53.760;9.678;2023-03-19T00:23:54;8.33;86.81
65374;SHT31;52070;53.760;9.678;2023-03-19T00:26:25;8.28;86.67
65374;SHT31;52070;53.760;9.678;2023-03-19T00:28:52;8.22;87.07
65374;SHT31;52070;53.760;9.678;2023-03-19T00:31:19;8.16;86.70
65374;SHT31;52070;53.760;9.678;2023-03-19T00:33:47;8.10;86.54
65374;SHT31;52070;53.760;9.678;2023-03-19T00:36:14;8.02;86.08
65374;SHT31;52070;53.760;9.678;2023-03-19T00:38:44;7.98;86.11
65374;SHT31;52070;53.760;9.678;2023-03-19T00:41:11;7.91;86.34
65374;SHT31;52070;53.760;9.678;2023-03-19T00:43:38;7.85;86.64
65374;SHT31;52070;53.760;9.678;2023-03-19T00:46:06;7.77;86.79
65374;SHT31;52070;53.760;9.678;2023-03-19T00:48:33;7.68;86.65
65374;SHT31;52070;53.760;9.678;2023-03-19T00:51:02;7.61;86.79
65374;SHT31;52070;53.760;9.678;2023-03-19T00:53:30;7.60;87.15
65374;SHT31;52070;53.760;9.678;2023-03-19T00:55:58;7.52;87.38
65374;SHT31;52070;53.760;9.678;2023-03-19T00:58:25;7.44;87.17
65374;SHT31;52070;53.760;9.678;2023-03-19T01:00:52;7.38;87.09
65374;SHT31;52070;53.760;9.678;2023-03-19T01:03:19;7.34;87.43
65374;SHT31;52070;53.760;9.678;2023-03-19T01:05:47;7.32;87.66
65374;SHT31;52070;53.760;9.678;2023-03-19T01:08:14;7.24;87.57
65374;SHT31;52070;53.760;9.678;2023-03-19T01:10:41;7.16;87.51
65374;SHT31;52070;53.760;9.678;2023-03-19T01:13:10;7.16;87.68
65374;SHT31;52070;53.760;9.678;2023-03-19T01:15:37;7.09;87.65
65374;SHT31;52070;53.760;9.678;2023-03-19T01:18:05;7.06;87.66
65374;SHT31;52070;53.760;9.678;2023-03-19T01:20:33;6.97;87.78
65374;SHT31;52070;53.760;9.678;2023-03-19T01:23:01;6.96;88.19
65374;SHT31;52070;53.760;9.678;2023-03-19T01:25:28;6.89;88.47
65374;SHT31;52070;53.760;9.678;2023-03-19T01:27:55;6.85;88.52
65374;SHT31;52070;53.760;9.678;2023-03-19T01:30:30;6.83;88.50
65374;SHT31;52070;53.760;9.678;2023-03-19T01:33:06;6.79;88.48
65374;SHT31;52070;53.760;9.678;2023-03-19T01:35:33;6.79;88.89
65374;SHT31;52070;53.760;9.678;2023-03-19T01:38:00;6.76;88.84
65374;SHT31;52070;53.760;9.678;2023-03-19T01:40:27;6.72;88.59
65374;SHT31;52070;53.760;9.678;2023-03-19T01:42:56;6.65;88.76
65374;SHT31;52070;53.760;9.678;2023-03-19T01:45:36;6.59;88.85
65374;SHT31;52070;53.760;9.678;2023-03-19T01:48:03;6.59;88.91
65374;SHT31;52070;53.760;9.678;2023-03-19T01:50:38;6.56;89.05
65374;SHT31;52070;53.760;9.678;2023-03-19T01:53:08;6.59;89.21
65374;SHT31;52070;53.760;9.678;2023-03-19T01:55:37;6.62;89.36
65374;SHT31;52070;53.760;9.678;2023-03-19T01:58:05;6.52;89.15
65374;SHT31;52070;53.760;9.678;2023-03-19T02:00:36;6.49;89.13
65374;SHT31;52070;53.760;9.678;2023-03-19T02:03:04;6.46;89.23
65374;SHT31;52070;53.760;9.678;2023-03-19T02:05:32;6.46;89.21
65374;SHT31;52070;53.760;9.678;2023-03-19T02:08:01;6.41;89.04
65374;SHT31;52070;53.760;9.678;2023-03-19T02:10:30;6.41;88.98
65374;SHT31;52070;53.760;9.678;2023-03-19T02:12:57;6.39;89.07
65374;SHT31;52070;53.760;9.678;2023-03-19T02:15:24;6.38;89.13
65374;SHT31;52070;53.760;9.678;2023-03-19T02:17:53;6.38;89.13
65374;SHT31;52070;53.760;9.678;2023-03-19T02:20:24;6.36;89.14
65374;SHT31;52070;53.760;9.678;2023-03-19T02:23:00;6.36;89.20
65374;SHT31;52070;53.760;9.678;2023-03-19T02:25:33;6.32;89.13
65374;SHT31;52070;53.760;9.678;2023-03-19T02:28:05;6.28;89.14
65374;SHT31;52070;53.760;9.678;2023-03-19T02:30:34;6.31;89.22
65374;SHT31;52070;53.760;9.678;2023-03-19T02:33:01;6.29;89.35
65374;SHT31;52070;53.760;9.678;2023-03-19T02:35:31;6.24;89.35
65374;SHT31;52070;53.760;9.678;2023-03-19T02:38:00;6.21;89.33
65374;SHT31;52070;53.760;9.678;2023-03-19T02:40:31;6.17;89.24
65374;SHT31;52070;53.760;9.678;2023-03-19T02:43:00;6.14;89.20
65374;SHT31;52070;53.760;9.678;2023-03-19T02:45:29;6.08;89.24
65374;SHT31;52070;53.760;9.678;2023-03-19T02:47:57;6.05;89.22
65374;SHT31;52070;53.760;9.678;2023-03-19T02:50:25;5.97;88.91
65374;SHT31;52070;53.760;9.678;2023-03-19T02:52:52;5.94;88.82
65374;SHT31;52070;53.760;9.678;2023-03-19T02:55:19;5.93;88.96
65374;SHT31;52070;53.760;9.678;2023-03-19T02:57:47;5.93;89.05
65374;SHT31;52070;53.760;9.678;2023-03-19T03:02:43;5.83;89.03
65374;SHT31;52070;53.760;9.678;2023-03-19T03:05:10;5.81;89.05
65374;SHT31;52070;53.760;9.678;2023-03-19T03:07:38;5.83;89.14
65374;SHT31;52070;53.760;9.678;2023-03-19T03:10:06;5.80;89.28
65374;SHT31;52070;53.760;9.678;2023-03-19T03:12:33;5.78;89.35
65374;SHT31;52070;53.760;9.678;2023-03-19T03:15:00;5.75;89.38
65374;SHT31;52070;53.760;9.678;2023-03-19T03:17:27;5.73;89.08
65374;SHT31;52070;53.760;9.678;2023-03-19T03:19:55;5.71;89.01
65374;SHT31;52070;53.760;9.678;2023-03-19T03:22:22;5.73;89.10
65374;SHT31;52070;53.760;9.678;2023-03-19T03:24:49;5.70;89.25
65374;SHT31;52070;53.760;9.678;2023-03-19T03:27:16;5.71;89.29
65374;SHT31;52070;53.760;9.678;2023-03-19T03:29:43;5.71;89.17
65374;SHT31;52070;53.760;9.678;2023-03-19T03:32:10;5.71;89.04
65374;SHT31;52070;53.760;9.678;2023-03-19T03:34:38;5.73;89.13
65374;SHT31;52070;53.760;9.678;2023-03-19T03:37:07;5.75;89.16
65374;SHT31;52070;53.760;9.678;2023-03-19T03:39:33;5.77;89.10
65374;SHT31;52070;53.760;9.678;2023-03-19T03:42:00;5.78;89.02
65374;SHT31;52070;53.760;9.678;2023-03-19T03:44:27;5.80;89.04
65374;SHT31;52070;53.760;9.678;2023-03-19T03:46:54;5.84;89.14
65374;SHT31;52070;53.760;9.678;2023-03-19T03:49:22;5.84;89.10
65374;SHT31;52070;53.760;9.678;2023-03-19T03:51:49;5.83;89.09
65374;SHT31;52070;53.760;9.678;2023-03-19T03:54:17;5.86;89.10
65374;SHT31;52070;53.760;9.678;2023-03-19T03:56:44;5.86;88.96
65374;SHT31;52070;53.760;9.678;2023-03-19T03:59:11;5.91;89.02
65374;SHT31;52070;53.760;9.678;2023-03-19T04:01:38;5.93;89.09
65374;SHT31;52070;53.760;9.678;2023-03-19T04:04:05;5.89;89.11
65374;SHT31;52070;53.760;9.678;2023-03-19T04:06:32;5.89;89.24
65374;SHT31;52070;53.760;9.678;2023-03-19T04:08:59;5.91;89.36
65374;SHT31;52070;53.760;9.678;2023-03-19T04:11:28;5.91;89.38
65374;SHT31;52070;53.760;9.678;2023-03-19T04:13:55;5.90;89.36
65374;SHT31;52070;53.760;9.678;2023-03-19T04:16:23;5.93;89.37
65374;SHT31;52070;53.760;9.678;2023-03-19T04:18:50;5.97;89.47
65374;SHT31;52070;53.760;9.678;2023-03-19T04:21:17;5.95;89.47
65374;SHT31;52070;53.760;9.678;2023-03-19T04:23:44;5.95;89.46
65374;SHT31;52070;53.760;9.678;2023-03-19T04:26:11;5.94;89.49
65374;SHT31;52070;53.760;9.678;2023-03-19T04:28:39;5.98;89.45
65374;SHT31;52070;53.760;9.678;2023-03-19T04:31:07;5.98;89.55
65374;SHT31;52070;53.760;9.678;2023-03-19T04:33:35;6.01;89.59
65374;SHT31;52070;53.760;9.678;2023-03-19T04:36:03;6.05;89.63
65374;SHT31;52070;53.760;9.678;2023-03-19T04:38:30;6.05;89.70
65374;SHT31;52070;53.760;9.678;2023-03-19T04:40:57;6.11;89.72
65374;SHT31;52070;53.760;9.678;2023-03-19T04:43:24;6.17;89.80
65374;SHT31;52070;53.760;9.678;2023-03-19T04:45:52;6.22;89.91
65374;SHT31;52070;53.760;9.678;2023-03-19T04:48:20;6.26;90.01
65374;SHT31;52070;53.760;9.678;2023-03-19T04:50:47;6.34;90.14
65374;SHT31;52070;53.760;9.678;2023-03-19T04:53:16;6.29;90.17
65374;SHT31;52070;53.760;9.678;2023-03-19T04:55:45;6.34;90.29
65374;SHT31;52070;53.760;9.678;2023-03-19T04:58:12;6.34;90.43
65374;SHT31;52070;53.760;9.678;2023-03-19T05:00:40;6.39;90.50
65374;SHT31;52070;53.760;9.678;2023-03-19T05:03:08;6.42;90.61
65374;SHT31;52070;53.760;9.678;2023-03-19T05:05:36;6.45;90.90
65374;SHT31;52070;53.760;9.678;2023-03-19T05:08:03;6.46;91.00
65374;SHT31;52070;53.760;9.678;2023-03-19T05:10:30;6.55;91.24
65374;SHT31;52070;53.760;9.678;2023-03-19T05:12:57;6.59;91.49
65374;SHT31;52070;53.760;9.678;2023-03-19T05:15:24;6.64;91.60
65374;SHT31;52070;53.760;9.678;2023-03-19T05:17:51;6.65;91.72
65374;SHT31;52070;53.760;9.678;2023-03-19T05:20:20;6.66;91.75
65374;SHT31;52070;53.760;9.678;2023-03-19T05:22:48;6.69;91.83
65374;SHT31;52070;53.760;9.678;2023-03-19T05:25:15;6.73;91.93
65374;SHT31;52070;53.760;9.678;2023-03-19T05:27:42;6.82;92.23
65374;SHT31;52070;53.760;9.678;2023-03-19T05:30:10;6.82;92.47
65374;SHT31;52070;53.760;9.678;2023-03-19T05:32:37;6.83;92.59
65374;SHT31;52070;53.760;9.678;2023-03-19T05:35:05;6.79;92.62
65374;SHT31;52070;53.760;9.678;2023-03-19T05:37:34;6.76;92.58
65374;SHT31;52070;53.760;9.678;2023-03-19T05:40:03;6.69;92.49
65374;SHT31;52070;53.760;9.678;2023-03-19T05:42:30;6.62;92.44
65374;SHT31;52070;53.760;9.678;2023-03-19T05:44:57;6.57;92.19
65374;SHT31;52070;53.760;9.678;2023-03-19T05:47:24;6.46;91.99
65374;SHT31;52070;53.760;9.678;2023-03-19T05:49:51;6.48;91.93
65374;SHT31;52070;53.760;9.678;2023-03-19T05:52:18;6.41;91.92
65374;SHT31;52070;53.760;9.678;2023-03-19T05:54:47;6.36;91.93
65374;SHT31;52070;53.760;9.678;2023-03-19T05:57:15;6.31;91.75
65374;SHT31;52070;53.760;9.678;2023-03-19T05:59:42;6.31;91.47
65374;SHT31;52070;53.760;9.678;2023-03-19T06:02:09;6.29;91.48
65374;SHT31;52070;53.760;9.678;2023-03-19T06:04:36;6.25;91.29
65374;SHT31;52070;53.760;9.678;2023-03-19T06:07:03;6.24;91.19
65374;SHT31;52070;53.760;9.678;2023-03-19T06:09:30;6.22;91.16
65374;SHT31;52070;53.760;9.678;2023-03-19T06:11:58;6.29;91.25
65374;SHT31;52070;53.760;9.678;2023-03-19T06:14:25;6.34;91.36
65374;SHT31;52070;53.760;9.678;2023-03-19T06:16:52;6.38;91.47
65374;SHT31;52070;53.760;9.678;2023-03-19T06:19:19;6.39;91.71
65374;SHT31;52070;53.760;9.678;2023-03-19T06:21:47;6.41;91.87
65374;SHT31;52070;53.760;9.678;2023-03-19T06:24:14;6.45;91.99
65374;SHT31;52070;53.760;9.678;2023-03-19T06:26:41;6.44;91.95
65374;SHT31;52070;53.760;9.678;2023-03-19T06:29:09;6.49;92.03
65374;SHT31;52070;53.760;9.678;2023-03-19T06:31:36;6.55;92.24
65374;SHT31;52070;53.760;9.678;2023-03-19T06:34:06;6.64;92.29
65374;SHT31;52070;53.760;9.678;2023-03-19T06:36:33;6.72;92.29
65374;SHT31;52070;53.760;9.678;2023-03-19T06:39:00;6.75;92.27
65374;SHT31;52070;53.760;9.678;2023-03-19T06:41:27;6.82;92.23
65374;SHT31;52070;53.760;9.678;2023-03-19T06:43:54;6.90;92.16
65374;SHT31;52070;53.760;9.678;2023-03-19T06:46:23;7.00;92.15
65374;SHT31;52070;53.760;9.678;2023-03-19T06:48:49;7.07;92.11
65374;SHT31;52070;53.760;9.678;2023-03-19T06:51:16;7.17;92.17
65374;SHT31;52070;53.760;9.678;2023-03-19T06:53:43;7.27;92.19
65374;SHT31;52070;53.760;9.678;2023-03-19T06:56:10;7.41;92.32
65374;SHT31;52070;53.760;9.678;2023-03-19T06:58:37;7.54;92.45
65374;SHT31;52070;53.760;9.678;2023-03-19T07:01:04;7.65;92.61
65374;SHT31;52070;53.760;9.678;2023-03-19T07:03:32;7.75;92.64
65374;SHT31;52070;53.760;9.678;2023-03-19T07:05:59;7.85;92.64
65374;SHT31;52070;53.760;9.678;2023-03-19T07:08:26;7.95;92.63
65374;SHT31;52070;53.760;9.678;2023-03-19T07:10:54;8.07;92.63
65374;SHT31;52070;53.760;9.678;2023-03-19T07:13:21;8.21;92.65
65374;SHT31;52070;53.760;9.678;2023-03-19T07:15:48;8.35;92.70
65374;SHT31;52070;53.760;9.678;2023-03-19T07:18:15;8.45;92.72
65374;SHT31;52070;53.760;9.678;2023-03-19T07:20:43;8.60;92.75
65374;SHT31;52070;53.760;9.678;2023-03-19T07:23:11;8.73;92.77
65374;SHT31;52070;53.760;9.678;2023-03-19T07:25:38;8.85;92.76
65374;SHT31;52070;53.760;9.678;2023-03-19T07:28:05;9.00;92.74
65374;SHT31;52070;53.760;9.678;2023-03-19T07:30:32;9.17;92.60
65374;SHT31;52070;53.760;9.678;2023-03-19T07:33:00;9.20;92.39
65374;SHT31;52070;53.760;9.678;2023-03-19T07:35:27;9.34;92.07
65374;SHT31;52070;53.760;9.678;2023-03-19T07:37:55;9.41;91.78
65374;SHT31;52070;53.760;9.678;2023-03-19T07:40:24;9.52;91.40
65374;SHT31;52070;53.760;9.678;2023-03-19T07:42:51;9.59;91.16
65374;SHT31;52070;53.760;9.678;2023-03-19T07:45:18;9.71;91.02
65374;SHT31;52070;53.760;9.678;2023-03-19T07:47:45;9.82;90.91
65374;SHT31;52070;53.760;9.678;2023-03-19T07:50:12;9.89;90.58
65374;SHT31;52070;53.760;9.678;2023-03-19T07:52:39;9.97;90.21
65374;SHT31;52070;53.760;9.678;2023-03-19T07:55:08;10.03;89.84
65374;SHT31;52070;53.760;9.678;2023-03-19T07:57:35;10.09;89.50
65374;SHT31;52070;53.760;9.678;2023-03-19T08:00:03;10.13;89.29
65374;SHT31;52070;53.760;9.678;2023-03-19T08:02:30;10.21;89.21
65374;SHT31;52070;53.760;9.678;2023-03-19T08:04:57;10.27;88.99
65374;SHT31;52070;53.760;9.678;2023-03-19T08:07:26;10.37;88.72
65374;SHT31;52070;53.760;9.678;2023-03-19T08:09:53;10.48;88.00
65374;SHT31;52070;53.760;9.678;2023-03-19T08:12:23;10.64;87.65
65374;SHT31;52070;53.760;9.678;2023-03-19T08:14:50;10.75;86.78
65374;SHT31;52070;53.760;9.678;2023-03-19T08:17:17;10.88;86.37
65374;SHT31;52070;53.760;9.678;2023-03-19T08:19:44;11.05;86.30
65374;SHT31;52070;53.760;9.678;2023-03-19T08:22:12;11.18;86.29
65374;SHT31;52070;53.760;9.678;2023-03-19T08:24:39;11.36;85.13
65374;SHT31;52070;53.760;9.678;2023-03-19T08:27:06;11.43;83.97
65374;SHT31;52070;53.760;9.678;2023-03-19T08:29:34;11.52;83.29
65374;SHT31;52070;53.760;9.678;2023-03-19T08:32:01;11.62;83.43
65374;SHT31;52070;53.760;9.678;2023-03-19T08:34:28;11.76;82.58
65374;SHT31;52070;53.760;9.678;2023-03-19T08:36:56;11.79;81.56
65374;SHT31;52070;53.760;9.678;2023-03-19T08:39:23;11.72;81.59
65374;SHT31;52070;53.760;9.678;2023-03-19T08:41:49;11.74;81.82
65374;SHT31;52070;53.760;9.678;2023-03-19T08:44:16;11.72;81.43
65374;SHT31;52070;53.760;9.678;2023-03-19T08:46:45;11.67;81.84
65374;SHT31;52070;53.760;9.678;2023-03-19T08:49:12;11.69;82.15
65374;SHT31;52070;53.760;9.678;2023-03-19T08:51:39;11.73;81.57
65374;SHT31;52070;53.760;9.678;2023-03-19T08:54:06;11.73;81.29
65374;SHT31;52070;53.760;9.678;2023-03-19T08:56:33;11.70;81.66
65374;SHT31;52070;53.760;9.678;2023-03-19T08:59:00;11.69;81.97
65374;SHT31;52070;53.760;9.678;2023-03-19T09:01:27;11.67;81.88
65374;SHT31;52070;53.760;9.678;2023-03-19T09:03:56;11.74;81.84
65374;SHT31;52070;53.760;9.678;2023-03-19T09:06:22;11.89;81.51
65374;SHT31;52070;53.760;9.678;2023-03-19T09:08:49;11.98;80.71
65374;SHT31;52070;53.760;9.678;2023-03-19T09:11:16;12.16;80.64
65374;SHT31;52070;53.760;9.678;2023-03-19T09:13:43;12.33;79.72
65374;SHT31;52070;53.760;9.678;2023-03-19T09:16:10;12.44;79.62
65374;SHT31;52070;53.760;9.678;2023-03-19T09:18:37;12.61;79.21
65374;SHT31;52070;53.760;9.678;2023-03-19T09:21:06;12.67;78.44
65374;SHT31;52070;53.760;9.678;2023-03-19T09:23:32;12.84;77.18
65374;SHT31;52070;53.760;9.678;2023-03-19T09:25:59;12.89;77.62
65374;SHT31;52070;53.760;9.678;2023-03-19T09:28:26;13.06;77.52
65374;SHT31;52070;53.760;9.678;2023-03-19T09:30:53;13.26;76.95
65374;SHT31;52070;53.760;9.678;2023-03-19T09:33:20;13.36;77.30
65374;SHT31;52070;53.760;9.678;2023-03-19T09:35:48;13.49;76.07
65374;SHT31;52070;53.760;9.678;2023-03-19T09:38:19;13.53;75.21
65374;SHT31;52070;53.760;9.678;2023-03-19T09:40:47;13.57;75.49
65374;SHT31;52070;53.760;9.678;2023-03-19T09:43:34;13.40;75.47
65374;SHT31;52070;53.760;9.678;2023-03-19T09:46:10;13.39;75.80
65374;SHT31;52070;53.760;9.678;2023-03-19T09:48:42;13.42;76.82
65374;SHT31;52070;53.760;9.678;2023-03-19T09:51:16;13.46;76.57
65374;SHT31;52070;53.760;9.678;2023-03-19T09:53:51;13.43;76.40
65374;SHT31;52070;53.760;9.678;2023-03-19T09:56:19;13.30;76.70
65374;SHT31;52070;53.760;9.678;2023-03-19T09:58:46;13.32;76.86
65374;SHT31;52070;53.760;9.678;2023-03-19T10:01:23;13.39;76.56
65374;SHT31;52070;53.760;9.678;2023-03-19T10:04:05;13.42;76.29
65374;SHT31;52070;53.760;9.678;2023-03-19T10:06:34;13.47;76.50
65374;SHT31;52070;53.760;9.678;2023-03-19T10:12:15;13.16;76.98
65374;SHT31;52070;53.760;9.678;2023-03-19T10:15:01;13.09;77.18
65374;SHT31;52070;53.760;9.678;2023-03-19T10:17:31;13.06;77.67
65374;SHT31;52070;53.760;9.678;2023-03-19T10:20:02;13.10;77.98
65374;SHT31;52070;53.760;9.678;2023-03-19T10:22:35;13.24;77.53
65374;SHT31;52070;53.760;9.678;2023-03-19T10:25:10;13.29;77.24
65374;SHT31;52070;53.760;9.678;2023-03-19T10:27:39;13.39;77.74
65374;SHT31;52070;53.760;9.678;2023-03-19T10:30:12;13.47;77.52
65374;SHT31;52070;53.760;9.678;2023-03-19T10:32:41;13.59;76.86
65374;SHT31;52070;53.760;9.678;2023-03-19T10:35:17;13.71;76.13
65374;SHT31;52070;53.760;9.678;2023-03-19T10:37:45;13.88;76.66
65374;SHT31;52070;53.760;9.678;2023-03-19T10:40:20;14.07;74.68
65374;SHT31;52070;53.760;9.678;2023-03-19T10:43:00;14.05;74.25
65374;SHT31;52070;53.760;9.678;2023-03-19T10:45:31;14.25;74.58
65374;SHT31;52070;53.760;9.678;2023-03-19T10:48:00;14.48;73.07
65374;SHT31;52070;53.760;9.678;2023-03-19T10:50:30;14.55;72.72
65374;SHT31;52070;53.760;9.678;2023-03-19T10:53:04;14.82;72.08
65374;SHT31;52070;53.760;9.678;2023-03-19T10:55:33;14.98;71.07
65374;SHT31;52070;53.760;9.678;2023-03-19T10:58:03;15.13;70.68
65374;SHT31;52070;53.760;9.678;2023-03-19T11:00:32;15.39;70.57
65374;SHT31;52070;53.760;9.678;2023-03-19T11:03:01;15.54;68.46
65374;SHT31;52070;53.760;9.678;2023-03-19T11:05:30;15.63;67.97
65374;SHT31;52070;53.760;9.678;2023-03-19T11:08:00;15.39;67.26
65374;SHT31;52070;53.760;9.678;2023-03-19T11:10:29;15.22;68.75
65374;SHT31;52070;53.760;9.678;2023-03-19T11:12:59;15.11;69.67
65374;SHT31;52070;53.760;9.678;2023-03-19T11:15:28;15.22;69.03
65374;SHT31;52070;53.760;9.678;2023-03-19T11:18:00;15.30;69.15
65374;SHT31;52070;53.760;9.678;2023-03-19T11:20:29;15.49;69.51
65374;SHT31;52070;53.760;9.678;2023-03-19T11:22:58;15.54;68.25
65374;SHT31;52070;53.760;9.678;2023-03-19T11:25:29;15.50;68.94
65374;SHT31;52070;53.760;9.678;2023-03-19T11:27:59;15.26;68.67
65374;SHT31;52070;53.760;9.678;2023-03-19T11:30:32;15.23;69.51
65374;SHT31;52070;53.760;9.678;2023-03-19T11:33:10;15.07;69.57
65374;SHT31;52070;53.760;9.678;2023-03-19T11:35:43;15.06;70.79
65374;SHT31;52070;53.760;9.678;2023-03-19T11:38:17;15.11;70.12
65374;SHT31;52070;53.760;9.678;2023-03-19T11:40:53;14.99;69.54
65374;SHT31;52070;53.760;9.678;2023-03-19T11:43:47;14.88;69.75
65374;SHT31;52070;53.760;9.678;2023-03-19T11:46:25;14.83;69.60
65374;SHT31;52070;53.760;9.678;2023-03-19T11:49:09;14.82;71.08
65374;SHT31;52070;53.760;9.678;2023-03-19T11:51:43;14.80;70.29
65374;SHT31;52070;53.760;9.678;2023-03-19T11:54:20;14.80;70.51
65374;SHT31;52070;53.760;9.678;2023-03-19T11:56:54;14.83;70.62
65374;SHT31;52070;53.760;9.678;2023-03-19T11:59:31;14.86;70.89
65374;SHT31;52070;53.760;9.678;2023-03-19T12:02:31;14.88;71.10
65374;SHT31;52070;53.760;9.678;2023-03-19T12:05:19;14.89;70.95
65374;SHT31;52070;53.760;9.678;2023-03-19T12:08:04;14.75;70.29
65374;SHT31;52070;53.760;9.678;2023-03-19T12:10:41;14.73;69.86
65374;SHT31;52070;53.760;9.678;2023-03-19T12:13:21;14.75;69.82
65374;SHT31;52070;53.760;9.678;2023-03-19T12:16:00;14.76;69.69
65374;SHT31;52070;53.760;9.678;2023-03-19T12:18:41;14.71;70.15
65374;SHT31;52070;53.760;9.678;2023-03-19T12:21:13;14.69;70.03
65374;SHT31;52070;53.760;9.678;2023-03-19T12:23:54;14.55;70.32
65374;SHT31;52070;53.760;9.678;2023-03-19T12:26:30;14.54;70.86
65374;SHT31;52070;53.760;9.678;2023-03-19T12:29:05;14.61;70.41
65374;SHT31;52070;53.760;9.678;2023-03-19T12:32:02;14.65;69.95
65374;SHT31;52070;53.760;9.678;2023-03-19T12:34:34;14.56;70.28
65374;SHT31;52070;53.760;9.678;2023-03-19T12:37:11;14.55;70.25
65374;SHT31;52070;53.760;9.678;2023-03-19T12:39:47;14.49;70.62
65374;SHT31;52070;53.760;9.678;2023-03-19T12:42:16;14.48;70.95
65374;SHT31;52070;53.760;9.678;2023-03-19T12:44:45;14.48;71.48
65374;SHT31;52070;53.760;9.678;2023-03-19T12:47:17;14.55;71.82
65374;SHT31;52070;53.760;9.678;2023-03-19T12:49:50;14.58;71.82
65374;SHT31;52070;53.760;9.678;2023-03-19T12:52:20;14.55;71.48
65374;SHT31;52070;53.760;9.678;2023-03-19T12:54:55;14.49;71.25
65374;SHT31;52070;53.760;9.678;2023-03-19T12:57:30;14.48;71.20
65374;SHT31;52070;53.760;9.678;2023-03-19T13:00:04;14.34;70.59
65374;SHT31;52070;53.760;9.678;2023-03-19T13:02:37;14.32;71.10
65374;SHT31;52070;53.760;9.678;2023-03-19T13:05:12;14.29;71.28
65374;SHT31;52070;53.760;9.678;2023-03-19T13:07:51;14.36;71.78
65374;SHT31;52070;53.760;9.678;2023-03-19T13:10:21;14.39;71.76
65374;SHT31;52070;53.760;9.678;2023-03-19T13:12:49;14.38;72.20
65374;SHT31;52070;53.760;9.678;2023-03-19T13:15:21;14.29;72.47
65374;SHT31;52070;53.760;9.678;2023-03-19T13:17:57;14.34;72.94
65374;SHT31;52070;53.760;9.678;2023-03-19T13:20:33;14.34;72.77
65374;SHT31;52070;53.760;9.678;2023-03-19T13:23:05;14.26;73.01
65374;SHT31;52070;53.760;9.678;2023-03-19T13:25:36;14.34;72.41
65374;SHT31;52070;53.760;9.678;2023-03-19T13:28:06;14.22;72.48
65374;SHT31;52070;53.760;9.678;2023-03-19T13:30:35;14.20;72.76
65374;SHT31;52070;53.760;9.678;2023-03-19T13:33:12;14.22;73.42
65374;SHT31;52070;53.760;9.678;2023-03-19T13:35:42;14.21;73.55
65374;SHT31;52070;53.760;9.678;2023-03-19T13:38:16;14.18;73.61
65374;SHT31;52070;53.760;9.678;2023-03-19T13:40:46;14.22;73.59
65374;SHT31;52070;53.760;9.678;2023-03-19T13:43:41;14.35;74.20
65374;SHT31;52070;53.760;9.678;2023-03-19T13:46:34;14.46;73.22
65374;SHT31;52070;53.760;9.678;2023-03-19T13:49:22;14.49;73.27
65374;SHT31;52070;53.760;9.678;2023-03-19T13:51:53;14.61;73.06
65374;SHT31;52070;53.760;9.678;2023-03-19T13:54:31;14.72;72.07
65374;SHT31;52070;53.760;9.678;2023-03-19T13:57:27;14.80;72.21
65374;SHT31;52070;53.760;9.678;2023-03-19T14:03:18;15.13;71.94
65374;SHT31;52070;53.760;9.678;2023-03-19T14:05:49;15.29;71.56
65374;SHT31;52070;53.760;9.678;2023-03-19T14:08:19;15.29;69.81
65374;SHT31;52070;53.760;9.678;2023-03-19T14:10:47;15.19;69.82
65374;SHT31;52070;53.760;9.678;2023-03-19T14:13:20;15.10;70.79
65374;SHT31;52070;53.760;9.678;2023-03-19T14:15:50;15.04;70.81
65374;SHT31;52070;53.760;9.678;2023-03-19T14:18:20;15.14;70.56
65374;SHT31;52070;53.760;9.678;2023-03-19T14:20:57;15.13;70.46
65374;SHT31;52070;53.760;9.678;2023-03-19T14:23:25;14.98;70.53
65374;SHT31;52070;53.760;9.678;2023-03-19T14:26:04;14.90;70.38
65374;SHT31;52070;53.760;9.678;2023-03-19T14:28:47;14.61;71.12
65374;SHT31;52070;53.760;9.678;2023-03-19T14:31:20;14.56;71.76
65374;SHT31;52070;53.760;9.678;2023-03-19T14:33:52;14.49;72.33
65374;SHT31;52070;53.760;9.678;2023-03-19T14:36:22;14.42;72.22
65374;SHT31;52070;53.760;9.678;2023-03-19T14:38:52;14.41;72.52
65374;SHT31;52070;53.760;9.678;2023-03-19T14:41:21;14.31;72.69
65374;SHT31;52070;53.760;9.678;2023-03-19T14:46:49;14.07;73.88
65374;SHT31;52070;53.760;9.678;2023-03-19T14:49:41;14.01;73.79
65374;SHT31;52070;53.760;9.678;2023-03-19T14:52:16;14.03;73.92
65374;SHT31;52070;53.760;9.678;2023-03-19T14:54:48;13.97;74.08
65374;SHT31;52070;53.760;9.678;2023-03-19T14:57:17;13.90;74.70
65374;SHT31;52070;53.760;9.678;2023-03-19T14:59:45;13.84;74.78
65374;SHT31;52070;53.760;9.678;2023-03-19T15:02:32;13.78;75.25
65374;SHT31;52070;53.760;9.678;2023-03-19T15:05:01;13.70;76.18
65374;SHT31;52070;53.760;9.678;2023-03-19T15:07:33;13.60;76.49
65374;SHT31;52070;53.760;9.678;2023-03-19T15:10:04;13.56;76.84
65374;SHT31;52070;53.760;9.678;2023-03-19T15:12:49;13.57;77.13
65374;SHT31;52070;53.760;9.678;2023-03-19T15:15:29;13.57;76.66
65374;SHT31;52070;53.760;9.678;2023-03-19T15:17:59;13.50;77.15
65374;SHT31;52070;53.760;9.678;2023-03-19T15:20:31;13.42;78.45
65374;SHT31;52070;53.760;9.678;2023-03-19T15:23:01;13.38;79.07
65374;SHT31;52070;53.760;9.678;2023-03-19T15:25:30;13.33;79.30
65374;SHT31;52070;53.760;9.678;2023-03-19T15:28:05;13.38;79.38
65374;SHT31;52070;53.760;9.678;2023-03-19T15:30:32;13.35;79.26
65374;SHT31;52070;53.760;9.678;2023-03-19T15:32:59;13.27;79.15
65374;SHT31;52070;53.760;9.678;2023-03-19T15:35:30;13.35;79.40
65374;SHT31;52070;53.760;9.678;2023-03-19T15:38:01;13.44;79.12
65374;SHT31;52070;53.760;9.678;2023-03-19T15:40:30;13.50;78.97
65374;SHT31;52070;53.760;9.678;2023-03-19T15:42:59;13.49;78.70
65374;SHT31;52070;53.760;9.678;2023-03-19T15:45:28;13.57;78.61
65374;SHT31;52070;53.760;9.678;2023-03-19T15:48:00;13.74;77.88
65374;SHT31;52070;53.760;9.678;2023-03-19T15:50:30;13.83;77.51
65374;SHT31;52070;53.760;9.678;2023-03-19T15:53:03;13.83;77.00
65374;SHT31;52070;53.760;9.678;2023-03-19T15:55:32;14.03;76.58
65374;SHT31;52070;53.760;9.678;2023-03-19T15:58:04;14.01;76.17
65374;SHT31;52070;53.760;9.678;2023-03-19T16:00:34;13.90;76.12
65374;SHT31;52070;53.760;9.678;2023-03-19T16:03:03;13.83;76.31
65374;SHT31;52070;53.760;9.678;2023-03-19T16:05:31;13.84;75.97
65374;SHT31;52070;53.760;9.678;2023-03-19T16:08:00;13.93;75.62